createdAt,value
2017-10-26T00:00:27.883Z,102065.03
2017-10-26T00:03:01.151Z,102072.75
2017-10-26T00:05:35.014Z,102074.44
2017-10-26T00:08:08.187Z,102071.41
2017-10-26T00:10:43.709Z,102066.17
2017-10-26T00:13:46.725Z,102066.29
2017-10-26T00:16:44.612Z,102065.81
2017-10-26T00:19:34.882Z,102060.72
2017-10-26T00:22:18.111Z,102065.23
2017-10-26T00:24:52.104Z,102061.20
2017-10-26T00:27:49.945Z,102055.00
2017-10-26T00:30:25.195Z,102061.80
2017-10-26T00:32:59.406Z,102067.29
2017-10-26T00:35:31.905Z,102066.69
2017-10-26T00:38:15.547Z,102066.95
2017-10-26T00:40:49.108Z,102058.80
2017-10-26T00:43:23.011Z,102069.05
2017-10-26T00:45:57.087Z,102069.91
2017-10-26T00:48:30.659Z,102076.77
2017-10-26T00:51:03.024Z,102072.51
2017-10-26T00:53:35.020Z,102079.16
2017-10-26T00:59:02.007Z,102086.10
2017-10-26T01:01:34.579Z,102090.38
2017-10-26T01:09:45.108Z,102082.91
2017-10-26T01:12:18.892Z,102075.50
2017-10-26T01:14:50.618Z,102078.11
2017-10-26T01:20:25.724Z,102081.28
2017-10-26T01:29:44.397Z,102075.15
2017-10-26T01:32:53.607Z,102074.10
2017-10-26T01:35:29.917Z,102068.79
2017-10-26T01:38:06.585Z,102071.60
2017-10-26T01:40:40.228Z,102077.70
2017-10-26T01:43:20.705Z,102071.34
2017-10-26T01:46:10.254Z,102077.65
2017-10-26T01:48:47.905Z,102077.01
2017-10-26T01:54:04.562Z,102071.22
2017-10-26T01:56:40.342Z,102066.03
2017-10-26T01:59:19.426Z,102059.47
2017-10-26T02:01:54.123Z,102059.40
2017-10-26T02:04:27.634Z,102062.21
2017-10-26T02:07:06.964Z,102062.97
2017-10-26T02:09:45.188Z,102060.92
2017-10-26T02:12:31.042Z,102050.73
2017-10-26T02:18:02.798Z,102060.58
2017-10-26T02:20:44.829Z,102052.22
2017-10-26T02:23:31.318Z,102047.69
2017-10-26T02:26:27.487Z,102050.50
2017-10-26T02:32:27.247Z,102050.23
2017-10-26T02:38:10.891Z,102050.59
2017-10-26T02:41:13.052Z,102056.65
2017-10-26T02:43:48.620Z,102059.05
2017-10-26T02:46:40.217Z,102054.52
2017-10-26T02:49:45.219Z,102052.77
2017-10-26T02:52:22.344Z,102044.28
2017-10-26T02:55:01.080Z,102052.23
2017-10-26T02:57:42.943Z,102053.86
2017-10-26T03:00:22.713Z,102050.09
2017-10-26T03:03:02.012Z,102052.73
2017-10-26T03:05:47.614Z,102056.88
2017-10-26T03:08:36.323Z,102066.58
2017-10-26T03:11:14.540Z,102065.38
2017-10-26T03:14:10.301Z,102057.39
2017-10-26T03:16:48.661Z,102054.63
2017-10-26T03:19:24.421Z,102050.99
2017-10-26T03:21:57.712Z,102042.77
2017-10-26T03:24:28.841Z,102045.77
2017-10-26T03:27:03.106Z,102051.56
2017-10-26T03:29:35.695Z,102042.48
2017-10-26T03:32:08.130Z,102046.44
2017-10-26T03:34:47.510Z,102051.78
2017-10-26T03:37:28.604Z,102051.23
2017-10-26T03:40:07.635Z,102044.02
2017-10-26T03:42:45.286Z,102039.27
2017-10-26T03:45:23.542Z,102045.09
2017-10-26T03:48:02.877Z,102044.17
2017-10-26T03:50:37.952Z,102047.75
2017-10-26T03:53:14.614Z,102042.88
2017-10-26T03:58:30.112Z,102051.86
2017-10-26T04:01:11.298Z,102045.64
2017-10-26T04:03:51.922Z,102034.68
2017-10-26T04:06:27.403Z,102027.17
2017-10-26T04:09:11.103Z,102023.48
2017-10-26T04:11:58.513Z,102027.12
2017-10-26T04:14:31.809Z,102034.68
2017-10-26T04:17:06.520Z,102034.37
2017-10-26T04:19:39.516Z,102032.17
2017-10-26T04:22:12.920Z,102033.09
2017-10-26T04:24:51.236Z,102035.78
2017-10-26T04:27:48.465Z,102032.34
2017-10-26T04:30:28.335Z,102025.34
2017-10-26T04:33:09.853Z,102029.13
2017-10-26T04:35:45.206Z,102032.72
2017-10-26T04:38:18.885Z,102036.17
2017-10-26T04:40:52.091Z,102037.94
2017-10-26T04:43:27.384Z,102043.58
2017-10-26T04:46:00.592Z,102047.55
2017-10-26T04:48:33.185Z,102042.59
2017-10-26T04:51:06.302Z,102038.28
2017-10-26T04:53:40.702Z,102026.19
2017-10-26T04:56:16.581Z,102037.75
2017-10-26T04:58:49.109Z,102034.02
2017-10-26T05:01:30.940Z,102026.20
2017-10-26T05:04:19.224Z,102032.64
2017-10-26T05:06:53.718Z,102035.35
2017-10-26T05:09:27.531Z,102031.95
2017-10-26T05:12:01.032Z,102027.06
2017-10-26T05:20:00.935Z,102034.99
2017-10-26T05:22:34.231Z,102022.05
2017-10-26T05:28:08.645Z,102031.21
2017-10-26T05:30:42.525Z,102015.91
2017-10-26T05:33:34.669Z,102014.23
2017-10-26T05:36:26.522Z,102015.52
2017-10-26T05:39:07.001Z,102007.19
2017-10-26T05:41:43.945Z,102003.52
2017-10-26T05:44:17.305Z,101998.70
2017-10-26T05:54:41.801Z,101995.26
2017-10-26T05:57:15.437Z,101977.28
2017-10-26T05:59:48.402Z,102002.23
2017-10-26T06:02:33.755Z,101993.69
2017-10-26T06:05:08.651Z,101985.70
2017-10-26T06:07:40.897Z,101989.16
2017-10-26T06:13:32.229Z,101995.00
2017-10-26T06:16:12.842Z,101998.55
2017-10-26T06:24:02.933Z,102014.84
2017-10-26T06:26:36.874Z,102019.70
2017-10-26T06:29:12.659Z,102011.38
2017-10-26T06:31:48.038Z,102012.39
2017-10-26T06:34:24.733Z,102010.66
2017-10-26T06:37:15.737Z,101991.53
2017-10-26T06:39:48.738Z,102035.86
2017-10-26T06:42:23.558Z,102033.81
2017-10-26T06:45:00.035Z,102035.39
2017-10-26T06:47:47.716Z,102027.47
2017-10-26T06:50:27.830Z,102033.16
2017-10-26T06:53:10.384Z,102029.49
2017-10-26T06:55:46.167Z,102026.80
2017-10-26T06:58:43.703Z,102013.63
2017-10-26T07:01:25.776Z,102024.83
2017-10-26T07:04:07.001Z,102035.15
2017-10-26T07:06:43.197Z,102043.56
2017-10-26T07:09:21.805Z,102045.20
2017-10-26T07:11:56.252Z,102034.11
2017-10-26T07:14:31.224Z,102033.81
2017-10-26T08:02:58.775Z,102052.23
2017-10-26T08:05:38.118Z,102050.26
2017-10-26T08:08:17.232Z,102040.58
2017-10-26T08:10:54.207Z,102045.83
2017-10-26T08:13:36.833Z,102027.84
2017-10-26T08:16:14.535Z,102047.91
2017-10-26T08:19:03.443Z,102048.75
2017-10-26T08:21:47.802Z,102052.12
2017-10-26T08:24:39.361Z,102058.38
2017-10-26T08:27:18.943Z,102053.58
2017-10-26T08:29:54.480Z,102057.53
2017-10-26T08:32:35.296Z,102066.17
2017-10-26T08:35:16.626Z,102067.97
2017-10-26T08:38:04.729Z,102062.23
2017-10-26T08:40:40.291Z,102054.95
2017-10-26T08:43:32.277Z,102055.00
2017-10-26T08:46:12.759Z,102038.11
2017-10-26T08:51:56.557Z,102050.59
2017-10-26T08:54:57.242Z,102050.67
2017-10-26T08:57:45.889Z,102046.81
2017-10-26T09:00:30.179Z,102036.98
2017-10-26T09:03:17.000Z,102049.97
2017-10-26T09:06:01.644Z,102049.91
2017-10-26T09:08:44.306Z,102047.02
2017-10-26T09:11:42.094Z,102023.30
2017-10-26T09:14:35.843Z,102050.69
2017-10-26T09:17:13.744Z,102059.00
2017-10-26T09:19:51.625Z,102048.10
2017-10-26T09:22:36.279Z,102032.19
2017-10-26T09:25:39.918Z,102069.85
2017-10-26T09:28:14.215Z,102065.98
2017-10-26T09:30:53.814Z,102066.80
2017-10-26T09:33:39.211Z,102062.39
2017-10-26T09:36:16.644Z,102065.86
2017-10-26T09:38:53.814Z,102067.91
2017-10-26T09:41:38.097Z,102076.59
2017-10-26T09:48:15.555Z,102076.75
2017-10-26T09:51:04.568Z,102070.29
2017-10-26T09:53:49.179Z,102079.92
2017-10-26T09:59:04.734Z,102080.64
2017-10-26T10:01:41.083Z,102030.05
2017-10-26T10:04:16.215Z,102050.87
2017-10-26T10:07:07.671Z,102056.59
2017-10-26T10:09:44.068Z,102052.16
2017-10-26T10:12:19.096Z,102053.04
2017-10-26T10:17:56.046Z,102057.81
2017-10-26T10:20:47.288Z,102056.25
2017-10-26T10:26:50.628Z,102046.56
2017-10-26T10:29:33.118Z,102040.03
2017-10-26T10:32:08.126Z,102033.84
2017-10-26T10:35:02.896Z,102024.54
2017-10-26T10:37:44.224Z,102027.16
2017-10-26T10:40:34.130Z,102028.86
2017-10-26T10:46:12.128Z,102029.40
2017-10-26T10:49:06.375Z,102032.64
2017-10-26T10:51:43.140Z,102030.69
2017-10-26T10:54:23.857Z,102027.07
2017-10-26T10:57:06.879Z,102026.87
2017-10-26T10:59:53.939Z,102019.91
2017-10-26T11:08:41.676Z,102009.35
2017-10-26T11:11:14.953Z,102014.78
2017-10-26T11:13:48.240Z,102020.48
2017-10-26T11:16:27.879Z,102008.28
2017-10-26T11:22:06.033Z,102005.97
2017-10-26T11:24:45.818Z,102006.95
2017-10-26T11:30:15.080Z,102013.80
2017-10-26T11:35:39.001Z,102014.72
2017-10-26T11:38:12.725Z,101990.72
2017-10-26T11:40:47.591Z,102017.04
2017-10-26T11:43:28.253Z,102018.34
2017-10-26T11:49:30.769Z,102022.50
2017-10-26T11:52:13.531Z,102024.72
2017-10-26T11:54:53.626Z,102021.75
2017-10-26T11:57:28.503Z,101998.88
2017-10-26T12:00:17.995Z,101980.56
2017-10-26T12:02:56.347Z,101994.97
2017-10-26T12:05:32.688Z,101983.59
2017-10-26T12:08:26.093Z,101979.23
2017-10-26T12:11:09.129Z,101976.98
2017-10-26T12:15:05.676Z,101982.10
2017-10-26T12:17:51.519Z,101946.56
2017-10-26T12:20:29.419Z,101981.73
2017-10-26T12:23:50.033Z,101960.02
2017-10-26T12:27:38.922Z,101949.80
2017-10-26T12:30:17.215Z,101955.40
2017-10-26T12:45:23.158Z,101948.05
2017-10-26T12:48:14.845Z,101956.76
2017-10-26T12:50:52.334Z,101946.48
2017-10-26T12:53:27.521Z,101940.22
2017-10-26T12:58:41.396Z,101925.62
2017-10-26T13:01:16.328Z,101926.62
2017-10-26T13:03:48.826Z,101925.25
2017-10-26T13:06:22.730Z,101920.74
2017-10-26T13:08:59.739Z,101924.98
2017-10-26T13:11:38.411Z,101914.41
2017-10-26T13:14:14.422Z,101934.48
2017-10-26T13:16:59.242Z,101919.23
2017-10-26T13:19:33.762Z,101929.09
2017-10-26T13:22:14.440Z,101931.08
2017-10-26T13:25:09.744Z,101939.32
2017-10-26T13:27:43.453Z,101930.23
2017-10-26T13:30:20.560Z,101913.00
2017-10-26T13:33:01.044Z,101927.16
2017-10-26T13:35:33.645Z,101909.66
2017-10-26T13:38:11.747Z,101917.09
2017-10-26T13:40:58.942Z,101908.19
2017-10-26T13:43:50.326Z,101912.61
2017-10-26T13:46:24.730Z,101906.73
2017-10-26T13:49:10.261Z,101910.30
2017-10-26T13:51:43.617Z,101916.52
2017-10-26T13:54:15.937Z,101919.27
2017-10-26T13:57:02.019Z,101914.63
2017-10-26T13:59:36.334Z,101919.03
2017-10-26T14:02:10.808Z,101914.27
2017-10-26T14:04:50.073Z,101901.88
2017-10-26T14:08:17.977Z,101910.31
2017-10-26T14:10:51.085Z,101916.88
2017-10-26T14:13:24.801Z,101929.92
2017-10-26T14:15:58.381Z,101907.69
2017-10-26T14:18:32.453Z,101907.06
2017-10-26T14:21:08.021Z,101914.75
2017-10-26T14:23:41.272Z,101922.34
2017-10-26T14:26:13.985Z,101921.89
2017-10-26T14:28:47.726Z,101921.58
2017-10-26T14:31:25.607Z,101919.88
2017-10-26T14:33:59.367Z,101906.00
2017-10-26T14:36:33.604Z,101903.26
2017-10-26T14:39:07.536Z,101900.59
2017-10-26T14:41:39.985Z,101900.51
2017-10-26T14:44:16.591Z,101904.80
2017-10-26T14:46:50.004Z,101904.59
2017-10-26T14:52:07.830Z,101906.80
2017-10-26T14:54:43.633Z,101895.47
2017-10-26T14:57:20.507Z,101880.86
2017-10-26T14:59:53.650Z,101880.61
2017-10-26T15:02:31.112Z,101882.62
2017-10-26T15:09:15.537Z,101880.03
2017-10-26T15:11:49.020Z,101868.86
2017-10-26T15:14:27.777Z,101864.64
2017-10-26T15:17:04.839Z,101847.48
2017-10-26T15:19:52.001Z,101838.01
2017-10-26T15:22:25.891Z,101863.09
2017-10-26T15:25:11.355Z,101877.89
2017-10-26T15:27:43.881Z,101879.52
2017-10-26T15:30:28.409Z,101876.30
2017-10-26T15:36:20.283Z,101883.85
2017-10-26T15:38:52.970Z,101894.47
2017-10-26T15:41:27.667Z,101889.80
2017-10-26T15:44:01.662Z,101894.86
2017-10-26T15:46:44.125Z,101889.09
2017-10-26T15:49:17.485Z,101887.05
2017-10-26T15:51:51.360Z,101886.12
2017-10-26T15:54:24.250Z,101882.08
2017-10-26T15:56:59.059Z,101886.97
2017-10-26T15:59:32.008Z,101877.94
2017-10-26T16:02:06.765Z,101889.09
2017-10-26T16:04:39.556Z,101866.89
2017-10-26T16:07:33.618Z,101884.83
2017-10-26T16:10:06.257Z,101881.03
2017-10-26T16:12:39.255Z,101884.72
2017-10-26T16:15:14.733Z,101882.47
2017-10-26T16:17:51.438Z,101880.16
2017-10-26T16:20:23.943Z,101878.71
2017-10-26T16:22:59.532Z,101875.88
2017-10-26T16:25:39.276Z,101859.59
2017-10-26T16:28:12.830Z,101870.72
2017-10-26T16:33:24.565Z,101863.95
2017-10-26T16:35:57.405Z,101869.42
2017-10-26T16:38:29.903Z,101878.49
2017-10-26T16:41:02.196Z,101887.18
2017-10-26T16:43:35.148Z,101888.44
2017-10-26T16:46:13.514Z,101878.94
2017-10-26T16:48:45.494Z,101877.02
2017-10-26T16:51:19.686Z,101874.64
2017-10-26T16:53:51.906Z,101877.73
2017-10-26T16:56:24.630Z,101873.20
2017-10-26T16:58:57.096Z,101872.38
2017-10-26T17:01:30.594Z,101862.61
2017-10-26T17:04:02.688Z,101869.28
2017-10-26T17:06:35.323Z,101862.09
2017-10-26T17:09:08.481Z,101857.41
2017-10-26T17:11:40.803Z,101860.19
2017-10-26T17:14:12.974Z,101866.73
2017-10-26T17:16:45.564Z,101870.26
2017-10-26T17:22:08.413Z,101877.56
2017-10-26T17:24:40.596Z,101874.33
2017-10-26T17:27:13.195Z,101874.34
2017-10-26T17:29:46.676Z,101876.97
2017-10-26T17:32:21.015Z,101865.86
2017-10-26T17:34:56.044Z,101855.20
2017-10-26T17:37:28.029Z,101850.61
2017-10-26T17:40:01.804Z,101853.58
2017-10-26T17:42:34.423Z,101854.42
2017-10-26T17:45:21.825Z,101850.21
2017-10-26T17:48:12.818Z,101849.53
2017-10-26T17:50:44.970Z,101842.06
2017-10-26T17:53:36.761Z,101852.23
2017-10-26T18:09:07.557Z,101856.53
2017-10-26T18:11:49.168Z,101857.73
2017-10-26T18:14:22.969Z,101858.30
2017-10-26T18:16:57.063Z,101853.27
2017-10-26T18:19:44.541Z,101848.45
2017-10-26T18:22:32.466Z,101858.88
2017-10-26T18:25:05.018Z,101860.00
2017-10-26T18:27:38.735Z,101867.66
2017-10-26T18:30:20.566Z,101872.33
2017-10-26T18:32:52.557Z,101877.79
2017-10-26T18:35:30.083Z,101877.61
2017-10-26T18:38:03.060Z,101865.11
2017-10-26T18:40:35.161Z,101864.29
2017-10-26T18:43:07.659Z,101851.16
2017-10-26T18:45:58.208Z,101839.99
2017-10-26T18:48:48.579Z,101846.27
2017-10-26T18:51:22.285Z,101851.28
2017-10-26T18:53:55.150Z,101853.73
2017-10-26T18:56:29.360Z,101855.97
2017-10-26T18:59:03.274Z,101843.19
2017-10-26T19:01:37.354Z,101844.49
2017-10-26T19:04:11.614Z,101856.39
2017-10-26T19:06:44.995Z,101844.53
2017-10-26T19:09:19.815Z,101851.90
2017-10-26T19:11:52.584Z,101849.77
2017-10-26T19:14:27.659Z,101831.77
2017-10-26T19:17:03.071Z,101840.08
2017-10-26T19:19:36.854Z,101843.17
2017-10-26T19:22:11.183Z,101844.91
2017-10-26T19:24:43.791Z,101838.45
2017-10-26T19:27:21.908Z,101844.97
2017-10-26T19:29:54.879Z,101848.16
2017-10-26T19:32:45.515Z,101855.70
2017-10-26T19:38:41.785Z,101854.61
2017-10-26T19:41:14.965Z,101853.17
2017-10-26T19:43:49.199Z,101851.53
2017-10-26T19:49:02.847Z,101845.06
2017-10-26T19:51:35.483Z,101844.84
2017-10-26T19:54:08.756Z,101864.93
2017-10-26T19:56:43.450Z,101853.73
2017-10-26T19:59:47.754Z,101850.16
2017-10-26T20:02:22.457Z,101848.49
2017-10-26T20:04:56.710Z,101861.67
2017-10-26T20:07:34.417Z,101859.80
2017-10-26T20:10:09.664Z,101863.38
2017-10-26T20:12:41.893Z,101863.77
2017-10-26T20:15:20.695Z,101860.39
2017-10-26T20:18:06.151Z,101853.26
2017-10-26T20:21:32.452Z,101865.47
2017-10-26T20:24:07.898Z,101860.77
2017-10-26T20:26:50.405Z,101862.38
2017-10-26T20:29:26.018Z,101847.56
2017-10-26T20:32:07.533Z,101844.56
2017-10-26T20:34:41.946Z,101847.77
2017-10-26T20:37:14.635Z,101848.38
2017-10-26T20:39:47.622Z,101854.69
2017-10-26T20:42:22.448Z,101855.02
2017-10-26T20:44:57.786Z,101846.12
2017-10-26T20:47:32.234Z,101838.68
2017-10-26T20:50:18.160Z,101848.91
2017-10-26T20:55:02.704Z,101846.83
2017-10-26T20:59:48.222Z,101841.61
2017-10-26T21:04:27.017Z,101848.67
2017-10-26T21:07:13.399Z,101855.33
2017-10-26T21:09:50.609Z,101847.03
2017-10-26T21:13:31.219Z,101851.04
2017-10-26T21:16:14.334Z,101847.53
2017-10-26T21:18:49.042Z,101849.28
2017-10-26T21:21:25.661Z,101854.45
2017-10-26T21:23:58.835Z,101851.97
2017-10-26T21:26:31.292Z,101854.19
2017-10-26T21:29:42.855Z,101851.75
2017-10-26T21:32:48.943Z,101846.37
2017-10-26T21:35:26.724Z,101850.19
2017-10-26T21:37:58.948Z,101852.03
2017-10-26T21:40:47.446Z,101845.14
2017-10-26T21:43:40.910Z,101845.70
2017-10-26T21:46:18.244Z,101819.15
2017-10-26T21:48:51.556Z,101847.92
2017-10-26T21:51:27.143Z,101848.37
2017-10-26T21:54:03.053Z,101851.27
2017-10-26T21:56:35.770Z,101845.33
2017-10-26T21:59:09.359Z,101844.67
2017-10-26T22:01:42.877Z,101848.38
2017-10-26T22:04:17.061Z,101830.09
2017-10-26T22:06:51.336Z,101839.43
2017-10-26T22:09:33.308Z,101836.41
2017-10-26T22:12:07.513Z,101836.75
2017-10-26T22:14:41.314Z,101836.70
2017-10-26T22:17:15.142Z,101839.90
2017-10-26T22:19:56.973Z,101843.70
2017-10-26T22:22:30.153Z,101846.30
2017-10-26T22:25:03.957Z,101854.64
2017-10-26T22:27:37.663Z,101856.73
2017-10-26T22:30:13.655Z,101847.00
2017-10-26T22:32:47.468Z,101843.87
2017-10-26T22:36:07.839Z,101815.70
2017-10-26T22:38:40.994Z,101834.80
2017-10-26T22:41:14.817Z,101833.89
2017-10-26T22:43:46.842Z,101841.15
2017-10-26T22:46:29.185Z,101819.67
2017-10-26T22:49:02.641Z,101817.85
2017-10-26T22:51:34.931Z,101802.90
2017-10-26T22:54:08.078Z,101808.11
2017-10-26T22:56:40.920Z,101812.87
2017-10-26T22:59:14.165Z,101822.40
2017-10-26T23:01:46.231Z,101818.95
2017-10-26T23:04:19.525Z,101811.86
2017-10-26T23:06:52.607Z,101815.89
2017-10-26T23:09:27.935Z,101824.17
2017-10-26T23:12:00.104Z,101825.31
2017-10-26T23:14:32.533Z,101834.72
2017-10-26T23:17:05.763Z,101835.47
2017-10-26T23:19:39.036Z,101833.31
2017-10-26T23:22:12.266Z,101834.11
2017-10-26T23:24:45.114Z,101822.54
2017-10-26T23:27:24.262Z,101812.20
2017-10-26T23:29:57.262Z,101817.16
2017-10-26T23:32:29.530Z,101814.90
2017-10-26T23:35:02.345Z,101816.63
2017-10-26T23:37:34.735Z,101823.80
2017-10-26T23:42:46.754Z,101829.31
2017-10-26T23:45:21.364Z,101821.59
2017-10-26T23:47:53.339Z,101821.39
2017-10-26T23:50:26.154Z,101824.59
2017-10-26T23:53:01.952Z,101822.59
2017-10-26T23:55:34.565Z,101817.33
2017-10-26T23:58:07.057Z,101818.91
